createdAt,value
2017-09-22T00:04:33.780Z,1021.8
2017-09-22T00:09:38.838Z,1021.8
2017-09-22T00:14:43.893Z,1021.8
2017-09-22T00:19:49.286Z,1021.8
2017-09-22T00:24:54.013Z,1021.8
2017-09-22T00:29:59.067Z,1021.8
2017-09-22T00:35:04.459Z,1021.7
2017-09-22T00:40:09.183Z,1021.8
2017-09-22T00:45:13.571Z,1021.7
2017-09-22T00:50:18.626Z,1021.7
2017-09-22T00:55:24.365Z,1021.6
2017-09-22T01:00:29.420Z,1021.6
2017-09-22T01:05:34.147Z,1021.5
2017-09-22T01:10:38.534Z,1021.5
2017-09-22T01:15:43.798Z,1021.5
2017-09-22T01:20:48.514Z,1021.4
2017-09-22T01:25:54.576Z,1021.4
2017-09-22T01:30:59.634Z,1021.4
2017-09-22T01:36:04.359Z,1021.5
2017-09-22T01:41:09.415Z,1021.4
2017-09-22T01:46:14.138Z,1021.4
2017-09-22T01:51:18.862Z,1021.4
2017-09-22T01:56:24.250Z,1021.3
2017-09-22T02:01:29.306Z,1021.3
2017-09-22T02:06:34.362Z,1021.3
2017-09-22T02:11:39.083Z,1021.3
2017-09-22T02:16:45.146Z,1021.4
2017-09-22T02:21:49.869Z,1021.4
2017-09-22T02:26:55.270Z,1021.4
2017-09-22T02:32:00.666Z,1021.4
2017-09-22T02:37:06.060Z,1021.3
2017-09-22T02:42:10.784Z,1021.2
2017-09-22T02:47:16.180Z,1021.1
2017-09-22T02:52:21.238Z,1021.1
2017-09-22T02:57:26.962Z,1021.1
2017-09-22T03:02:32.690Z,1021.1
2017-09-22T03:07:38.081Z,1021.2
2017-09-22T03:12:43.810Z,1021.2
2017-09-22T03:17:49.203Z,1021.2
2017-09-22T03:22:54.267Z,1021.2
2017-09-22T03:27:59.659Z,1021.1
2017-09-22T03:33:04.713Z,1021.1
2017-09-22T03:38:09.770Z,1021.1
2017-09-22T03:43:14.829Z,1021.2
2017-09-22T03:48:19.553Z,1021.2
2017-09-22T03:53:25.281Z,1021.2
2017-09-22T03:58:31.007Z,1021.2
2017-09-22T04:03:36.737Z,1021.2
2017-09-22T04:08:41.460Z,1021.1
2017-09-22T04:13:45.848Z,1021.1
2017-09-22T04:18:50.621Z,1021.1
2017-09-22T04:23:55.341Z,1021.1
2017-09-22T04:28:59.727Z,1021.1
2017-09-22T04:34:04.785Z,1021
2017-09-22T04:39:10.510Z,1021
2017-09-22T04:44:15.573Z,1021
2017-09-22T04:49:20.291Z,1021
2017-09-22T04:54:24.680Z,1021
2017-09-22T04:59:30.074Z,1021
2017-09-22T05:04:35.468Z,1021
2017-09-22T05:09:40.531Z,1021.1
2017-09-22T05:14:45.252Z,1021.1
2017-09-22T05:19:50.860Z,1021
2017-09-22T05:24:56.133Z,1021
2017-09-22T05:30:01.862Z,1021
2017-09-22T05:35:07.589Z,1021
2017-09-22T05:40:11.979Z,1021
2017-09-22T05:45:17.035Z,1021
2017-09-22T05:50:22.430Z,1021.1
2017-09-22T05:55:27.830Z,1021.3
2017-09-22T06:00:32.212Z,1021.3
2017-09-22T06:05:37.607Z,1021.3
2017-09-22T06:10:42.667Z,1021.3
2017-09-22T06:15:47.393Z,1021.3
2017-09-22T06:20:53.123Z,1021.4
2017-09-22T06:25:58.741Z,1021.5
2017-09-22T06:31:03.807Z,1021.5
2017-09-22T06:36:09.543Z,1021.6
2017-09-22T06:41:14.600Z,1021.6
2017-09-22T06:46:20.338Z,1021.6
2017-09-22T06:51:26.066Z,1021.6
2017-09-22T06:56:32.129Z,1021.7
2017-09-22T07:01:37.193Z,1021.7
2017-09-22T07:06:42.922Z,1021.7
2017-09-22T07:11:48.318Z,1021.7
2017-09-22T07:16:54.055Z,1021.7
2017-09-22T07:21:59.778Z,1021.7
2017-09-22T07:27:05.171Z,1021.7
2017-09-22T07:32:10.569Z,1021.8
2017-09-22T07:37:15.319Z,1021.8
2017-09-22T07:42:21.056Z,1021.8
2017-09-22T07:47:26.782Z,1022
2017-09-22T07:52:32.077Z,1022
2017-09-22T07:57:37.154Z,1022
2017-09-22T08:02:42.588Z,1022
2017-09-22T08:07:47.313Z,1022
2017-09-22T08:12:52.713Z,1022
2017-09-22T08:17:58.108Z,1021.9
2017-09-22T08:23:03.500Z,1021.9
2017-09-22T08:28:09.230Z,1021.9
2017-09-22T08:33:14.625Z,1021.9
2017-09-22T08:38:19.686Z,1021.9
2017-09-22T08:43:24.750Z,1021.9
2017-09-22T08:48:30.150Z,1021.9
2017-09-22T08:53:35.546Z,1021.8
2017-09-22T08:58:40.610Z,1021.8
2017-09-22T09:03:46.008Z,1021.7
2017-09-22T09:08:51.406Z,1021.8
2017-09-22T09:13:57.147Z,1021.8
2017-09-22T09:19:02.548Z,1021.8
2017-09-22T09:24:06.947Z,1021.8
2017-09-22T09:29:12.685Z,1021.8
2017-09-22T09:34:17.752Z,1021.7
2017-09-22T09:39:22.152Z,1021.7
2017-09-22T09:44:27.220Z,1021.8
2017-09-22T09:49:32.628Z,1021.8
2017-09-22T09:54:37.698Z,1021.7
2017-09-22T09:59:43.099Z,1021.7
2017-09-22T10:04:48.174Z,1021.7
2017-09-22T10:09:53.576Z,1021.6
2017-09-22T10:14:57.972Z,1021.5
2017-09-22T10:20:03.042Z,1021.5
2017-09-22T10:25:08.771Z,1021.6
2017-09-22T10:30:13.497Z,1021.6
2017-09-22T10:35:18.228Z,1021.5
2017-09-22T10:40:23.293Z,1021.5
2017-09-22T10:45:28.355Z,1021.5
2017-09-22T10:50:34.422Z,1021.5
2017-09-22T10:55:39.154Z,1021.6
2017-09-22T11:00:44.884Z,1021.6
2017-09-22T11:05:50.619Z,1021.5
2017-09-22T11:10:56.018Z,1021.5
2017-09-22T11:16:00.748Z,1021.5
2017-09-22T11:21:06.146Z,1021.5
2017-09-22T11:26:10.870Z,1021.5
2017-09-22T11:31:16.600Z,1021.5
2017-09-22T11:36:21.998Z,1021.4
2017-09-22T11:41:27.394Z,1021.4
2017-09-22T11:46:33.126Z,1021.4
2017-09-22T11:51:38.526Z,1021.4
2017-09-22T11:56:44.254Z,1021.4
2017-09-22T12:01:48.982Z,1021.3
2017-09-22T12:06:54.383Z,1021.4
2017-09-22T12:11:59.774Z,1021.3
2017-09-22T12:17:04.837Z,1021.4
2017-09-22T12:22:09.596Z,1021.3
2017-09-22T12:27:14.959Z,1021.4
2017-09-22T12:32:20.694Z,1021.3
2017-09-22T12:37:25.756Z,1021.3
2017-09-22T12:42:29.812Z,1021.2
2017-09-22T12:47:35.543Z,1021.3
2017-09-22T12:52:40.271Z,1021.3
2017-09-22T12:57:46.001Z,1021.3
2017-09-22T13:02:51.399Z,1021.2
2017-09-22T13:07:56.125Z,1021.2
2017-09-22T13:13:01.526Z,1021.2
2017-09-22T13:18:06.921Z,1021.3
2017-09-22T13:23:12.316Z,1021.4
2017-09-22T13:28:17.044Z,1021.3
2017-09-22T13:33:22.774Z,1021.4
2017-09-22T13:38:27.835Z,1021.4
2017-09-22T13:43:33.566Z,1021.4
2017-09-22T13:48:39.628Z,1021.4
2017-09-22T13:53:45.357Z,1021.4
2017-09-22T13:58:50.420Z,1021.4
2017-09-22T14:03:56.485Z,1021.5
2017-09-22T14:09:02.552Z,1021.5
2017-09-22T14:14:07.984Z,1021.4
2017-09-22T14:19:13.390Z,1021.4
2017-09-22T14:24:18.452Z,1021.4
2017-09-22T14:29:23.515Z,1021.4
2017-09-22T14:34:28.580Z,1021.4
2017-09-22T14:39:33.306Z,1021.4
2017-09-22T14:44:38.375Z,1021.4
2017-09-22T14:49:43.431Z,1021.4
2017-09-22T14:54:49.179Z,1021.4
2017-09-22T14:59:54.113Z,1021.5
2017-09-22T15:04:59.513Z,1021.5
2017-09-22T15:10:04.573Z,1021.4
2017-09-22T15:15:09.639Z,1021.5
2017-09-22T15:20:14.703Z,1021.5
2017-09-22T15:25:20.328Z,1021.4
2017-09-22T15:30:26.059Z,1021.5
2017-09-22T15:35:31.607Z,1021.5
2017-09-22T15:40:37.747Z,1021.5
2017-09-22T15:45:43.144Z,1021.5
2017-09-22T15:50:48.541Z,1021.6
2017-09-22T15:55:53.936Z,1021.6
2017-09-22T16:00:59.337Z,1021.6
2017-09-22T16:06:05.068Z,1021.6
2017-09-22T16:11:09.795Z,1021.7
2017-09-22T16:16:15.203Z,1021.7
2017-09-22T16:21:20.929Z,1021.7
2017-09-22T16:26:25.997Z,1021.7
2017-09-22T16:31:31.060Z,1021.7
2017-09-22T16:36:36.459Z,1021.8
2017-09-22T16:41:41.524Z,1021.8
2017-09-22T16:46:46.583Z,1021.8
2017-09-22T16:51:52.002Z,1021.7
2017-09-22T16:56:57.730Z,1021.7
2017-09-22T17:02:03.126Z,1021.7
2017-09-22T17:07:07.849Z,1021.8
2017-09-22T17:12:12.574Z,1021.8
2017-09-22T17:17:18.302Z,1021.9
2017-09-22T17:22:23.699Z,1021.9
2017-09-22T17:27:29.424Z,1022
2017-09-22T17:32:34.816Z,1021.9
2017-09-22T17:37:40.209Z,1021.9
2017-09-22T17:42:45.269Z,1021.9
2017-09-22T17:47:49.988Z,1022
2017-09-22T17:52:55.045Z,1022.1
2017-09-22T17:57:59.771Z,1022
2017-09-22T18:03:04.834Z,1022.1
2017-09-22T18:08:10.230Z,1022.1
2017-09-22T18:13:16.111Z,1022.1
2017-09-22T18:18:20.850Z,1022.2
2017-09-22T18:23:25.585Z,1022.2
2017-09-22T18:28:29.978Z,1022.2
2017-09-22T18:33:34.710Z,1022.3
2017-09-22T18:38:39.781Z,1022.3
2017-09-22T18:43:45.181Z,1022.4
2017-09-22T18:48:50.589Z,1022.4
2017-09-22T18:53:56.335Z,1022.5
2017-09-22T18:59:01.398Z,1022.5
2017-09-22T19:04:06.464Z,1022.5
2017-09-22T19:09:11.200Z,1022.5
2017-09-22T19:14:16.649Z,1022.6
2017-09-22T19:19:22.046Z,1022.6
2017-09-22T19:24:26.778Z,1022.6
2017-09-22T19:29:30.835Z,1022.7
2017-09-22T19:34:36.572Z,1022.7
2017-09-22T19:39:41.301Z,1022.7
2017-09-22T19:44:45.700Z,1022.7
2017-09-22T19:49:50.776Z,1022.7
2017-09-22T19:54:56.170Z,1022.7
2017-09-22T20:00:00.770Z,1022.7
2017-09-22T20:05:05.504Z,1022.8
2017-09-22T20:10:11.238Z,1022.9
2017-09-22T20:15:16.311Z,1023
2017-09-22T20:20:21.714Z,1023
2017-09-22T20:25:26.444Z,1023
2017-09-22T20:30:31.854Z,1023
2017-09-22T20:35:37.256Z,1023
2017-09-22T20:40:42.661Z,1023.1
2017-09-22T20:45:48.729Z,1023.1
2017-09-22T20:50:53.797Z,1023.1
2017-09-22T20:55:59.219Z,1023.1
2017-09-22T21:01:04.026Z,1023.1
2017-09-22T21:06:09.738Z,1023.1
2017-09-22T21:11:15.137Z,1023.1
2017-09-22T21:16:20.207Z,1023.1
2017-09-22T21:21:25.604Z,1023.1
2017-09-22T21:26:30.671Z,1023.1
2017-09-22T21:31:35.734Z,1023.1
2017-09-22T21:36:40.794Z,1023.1
2017-09-22T21:41:46.524Z,1023
2017-09-22T21:46:51.255Z,1023.1
2017-09-22T21:51:56.316Z,1023.1
2017-09-22T21:57:01.706Z,1023.1
2017-09-22T22:02:07.098Z,1023
2017-09-22T22:07:12.159Z,1023
2017-09-22T22:12:16.877Z,1023.1
2017-09-22T22:17:21.602Z,1023.1
2017-09-22T22:22:26.663Z,1023.2
2017-09-22T22:27:32.059Z,1023.2
2017-09-22T22:32:36.785Z,1023.2
2017-09-22T22:37:41.843Z,1023.2
2017-09-22T22:42:47.240Z,1023.2
2017-09-22T22:47:52.629Z,1023.3
2017-09-22T22:52:58.022Z,1023.2
2017-09-22T22:58:02.748Z,1023.3
2017-09-22T23:03:07.471Z,1023.3
2017-09-22T23:08:12.579Z,1023.3
2017-09-22T23:13:17.640Z,1023.4
2017-09-22T23:18:23.033Z,1023.4
2017-09-22T23:23:28.428Z,1023.4
2017-09-22T23:28:33.153Z,1023.5
2017-09-22T23:33:37.876Z,1023.5
2017-09-22T23:38:42.933Z,1023.4
2017-09-22T23:43:47.658Z,1023.5
2017-09-22T23:48:53.052Z,1023.5
2017-09-22T23:53:58.107Z,1023.6
2017-09-22T23:59:02.496Z,1023.6
